Brittons Neck, South Carolina
Current Conditions -  °F | °C
As of 8:55 PM on Monday 20 Oct 2014 (Local Time) from KHYW Reporting Station
Clear Clear  
Wind Chill: 59°   Ceiling: Unl
Heat Index: 59°   Visibility: 7mi
Dew Point: 59°   Wind: 0mph
Humidity: 100%   Direction: NA
Pressure: 30.01"   Gusts: NA
Location:  33.8591°N, 79.3256°W
Report Text: KHYW 210055Z AUTO 00000KT 7SM CLR 15/15 A3001 RMK AO2
Loading
Personal Weather Stations






























Interactive Weather Map
Tropical Storm Tracking
New forecast layout! Learn more

10-Day Weather Forecast

Advertisements
Track Severe Weather on mobile